13.8°F
Current conditions from King Hill
Updated every 5 minutes
 
  Friday December 19, 2014

Observations for Westford

Westford

44° 37' 39"N, 73° 02' 29"W, Elevation 850 ft.
Eastern Time

Hourly observations for the last 72 hours

Date Time Temperature (F) Humi-
dity

(%)
Wind
(mph)
Pressure Rain (in)
Air Dew 6 Hour 1 Hr 3 Hr 6 Hr Day
Alt
(in)
Sea
Level

(mb)
Max Min
19 21:00 14.3 12.6 93 Calm 30.19 1022.2 0.00
19 20:00 17.1 15.2 92 Calm 30.18 1022.1 0.00
19 19:00 19.1 17.2 21.5 19.0 92 Calm 30.17 1021.7 0.00
19 18:00 19.5 17.3 91 N 0 G 1 30.16 1021.3 0.00
19 17:00 19.7 17.8 92 Calm 30.12 1020.1 0.00
19 16:00 20.1 17.9 91 NNE 0 G 2 30.10 1019.4 0.00
19 15:00 20.7 18.5 91 N 0 G 7 30.08 1018.6 0.00
19 14:00 21.2 19.0 91 NNE 0 G 4 30.06 1017.9 0.00
19 13:00 21.5 19.3 22.2 21.3 91 NNE 0 G 4 30.04 1017.4 0.00
19 12:00 21.6 19.6 92 NNW 0 G 5 30.04 1017.4 0.00
19 11:00 21.6 19.6 92 NNW 0 G 5 30.04 1017.3 0.00
19 10:00 21.6 19.9 93 WNW 1 G 7 30.04 1017.2 0.00
19 09:00 21.7 20.0 93 NNW 0 G 2 30.02 1016.5 0.00
19 08:00 21.8 20.1 93 NW 0 G 2 30.00 1016.0 0.00
19 07:00 22.2 20.5 24.5 22.2 93 NW 0 G 5 29.97 1015.1 0.00
19 06:00 23.1 21.9 95 Calm 29.95 1014.2 0.00
19 05:00 23.4 22.2 95 WNW 0 G 3 29.94 1013.8 0.00
19 04:00 23.7 22.7 96 WNW 0 G 2 29.92 1013.3 0.00
19 03:00 24.1 22.9 95 WNW 0 G 8 29.92 1013.1 0.00
19 02:00 24.4 23.2 95 NW 0 G 6 29.91 1012.8 0.00
19 01:00 24.5 23.3 27.4 24.5 95 NW 0 G 10 29.90 1012.5 0.00
19 00:00 24.5 23.3 95 WNW 0 G 7 29.90 1012.6 0.00
18 23:00 25.0 23.8 95 NW 0 G 10 29.90 1012.5 0.00
18 22:00 25.7 24.5 95 NW 0 G 11 29.89 1012.3 0.00
18 21:00 26.1 24.9 95 WNW 0 G 19 29.89 1012.1 0.00
18 20:00 26.7 25.5 95 NW 0 G 15 29.89 1012.1 0.00
18 19:00 27.3 26.1 30.3 27.3 95 WNW 2 G 11 29.88 1012.0 0.00
18 18:00 27.6 26.4 95 W 0 G 10 29.87 1011.6 0.00
18 17:00 28.8 27.5 95 NW 3 G 3 29.86 1011.1 0.00
18 16:00 28.8 27.5 95 NW 3 G 3 29.83 1010.4 0.00
18 15:00 28.9 27.6 95 NW 1 G 10 29.83 1010.1 0.00
18 14:00 29.4 28.1 95 NW 2 G 12 29.82 1009.7 0.00
18 13:00 30.3 28.8 31.4 30.3 94 NW 1 G 12 29.80 1009.3 0.00
18 12:00 31.2 29.9 95 WNW 2 G 7 29.80 1009.2 0.00
18 11:00 31.4 30.6 97 WNW 2 G 8 29.80 1009.3 0.00
18 10:00 31.0 30.5 98 Calm 29.81 1009.3 0.00
18 09:00 31.0 30.5 98 Calm 29.80 1009.1 0.00
18 08:00 31.0 30.5 98 Calm 29.78 1008.5 0.00
18 07:00 31.2 30.7 32.9 31.1 98 NW 0 G 8 29.76 1007.7 0.00
18 06:00 31.2 30.7 98 NW 1 G 5 29.74 1007.2 0.00
18 05:00 31.4 30.9 98 WNW 1 G 4 29.73 1006.9 0.00
18 04:00 31.6 31.1 98 NW 0 G 9 29.73 1006.8 0.00
18 03:00 32.0 31.5 98 Calm 29.73 1006.7 0.00
18 02:00 32.7 32.2 98 Calm 29.72 1006.3 0.00
18 01:00 32.5 32.0 36.1 32.5 98 Calm 29.70 1005.9 0.00
18 00:00 32.9 32.4 98 Calm 29.71 1006.2 0.00
17 23:00 33.4 32.9 98 Calm 29.73 1006.6 0.00
17 22:00 33.9 33.1 97 Calm 29.73 1006.8 0.00
17 21:00 34.3 33.5 97 Calm 29.73 1006.8 0.00
17 20:00 35.5 34.7 97 W 1 G 4 29.73 1006.9 0.00
17 19:00 36.0 35.2 37.4 36.0 97 WNW 0 G 4 29.74 1007.1 0.00
17 18:00 36.2 35.7 98 W 3 G 9 29.73 1006.9 0.00
17 17:00 36.5 36.0 98 SW 2 G 11 29.72 1006.4 0.00
17 16:00 36.2 35.7 98 Calm 29.71 1006.1 0.00
17 15:00 37.2 36.7 98 SSW 3 G 5 29.71 1006.1 0.00
17 14:00 37.0 36.5 98 Calm 29.70 1005.9 0.00
17 13:00 37.3 36.8 37.9 33.2 98 SSW 2 G 3 29.71 1006.0 0.00
17 12:00 37.6 37.1 98 Calm 29.72 1006.5 0.00
17 11:00 37.5 37.0 98 SSW 0 G 5 29.74 1007.3 0.00
17 10:00 37.1 36.6 98 SSW 2 G 6 29.77 1008.0 0.00
17 09:00 35.0 34.5 98 Calm 29.77 1008.2 0.00
17 08:00 33.7 33.2 98 Calm 29.77 1008.0 0.00
17 07:00 33.2 32.7 34.9 33.2 98 Calm 29.77 1008.3 0.00
17 06:00 33.5 33.0 98 Calm 29.78 1008.4 0.00
17 05:00 33.5 33.0 98 Calm 29.78 1008.6 0.00
17 04:00 34.1 33.3 97 Calm 29.78 1008.5 0.00
17 03:00 34.7 33.9 97 S 0 G 3 29.80 1009.2 0.00
17 02:00 34.6 33.8 97 Calm 29.81 1009.7 0.00
17 01:00 34.3 33.5 35.1 32.9 97 S 0 G 6 29.82 1009.8 0.00
17 00:00 34.9 34.1 97 SSW 2 G 4 29.83 1010.1 0.00
16 23:00 34.2 33.2 96 SSW 1 G 6 29.85 1010.8 0.00
16 22:00 34.1 33.3 97 S 0 G 4 29.86 1011.3 0.00

Data generated by WxSolution Version 1.8.7.2, Build 2014.02.15.


 
 
Current Radar Loop:

Copyright © WestfordWeather.net 2007-2014. All rights reserved.